sensor_id;sensor_type;location;lat;lon;timestamp;pressure;altitude;pressure_sealevel;temperature;humidity
74893;BME280;63446;56.272;43.922;2023-06-04T00:02:10;100390.09;;;15.37;61.47
74893;BME280;63446;56.272;43.922;2023-06-04T00:04:36;100394.44;;;15.33;61.32
74893;BME280;63446;56.272;43.922;2023-06-04T00:07:02;100415.44;;;15.34;61.08
74893;BME280;63446;56.272;43.922;2023-06-04T00:09:28;100407.47;;;15.34;61.27
74893;BME280;63446;56.272;43.922;2023-06-04T00:11:55;100388.81;;;15.34;61.33
74893;BME280;63446;56.272;43.922;2023-06-04T00:14:23;100396.50;;;15.36;61.26
74893;BME280;63446;56.272;43.922;2023-06-04T00:16:48;100419.69;;;15.35;61.03
74893;BME280;63446;56.272;43.922;2023-06-04T00:19:14;100423.44;;;15.34;61.11
74893;BME280;63446;56.272;43.922;2023-06-04T00:21:40;100414.16;;;15.32;60.75
74893;BME280;63446;56.272;43.922;2023-06-04T00:24:06;100409.63;;;15.32;60.77
74893;BME280;63446;56.272;43.922;2023-06-04T00:26:33;100421.38;;;15.31;60.87
74893;BME280;63446;56.272;43.922;2023-06-04T00:29:00;100423.25;;;15.31;60.57
74893;BME280;63446;56.272;43.922;2023-06-04T00:31:26;100435.00;;;15.30;60.80
74893;BME280;63446;56.272;43.922;2023-06-04T00:33:51;100433.41;;;15.29;60.24
74893;BME280;63446;56.272;43.922;2023-06-04T00:36:18;100440.13;;;15.26;60.44
74893;BME280;63446;56.272;43.922;2023-06-04T00:38:43;100444.16;;;15.24;60.84
74893;BME280;63446;56.272;43.922;2023-06-04T00:41:10;100444.47;;;15.22;60.85
74893;BME280;63446;56.272;43.922;2023-06-04T00:43:36;100453.81;;;15.20;60.76
74893;BME280;63446;56.272;43.922;2023-06-04T00:46:03;100464.47;;;15.20;60.55
74893;BME280;63446;56.272;43.922;2023-06-04T00:48:29;100453.03;;;15.19;60.59
74893;BME280;63446;56.272;43.922;2023-06-04T00:50:56;100449.88;;;15.17;60.51
74893;BME280;63446;56.272;43.922;2023-06-04T00:53:24;100449.88;;;15.17;60.02
74893;BME280;63446;56.272;43.922;2023-06-04T00:55:51;100453.94;;;15.14;59.72
74893;BME280;63446;56.272;43.922;2023-06-04T00:58:17;100466.44;;;15.14;59.58
74893;BME280;63446;56.272;43.922;2023-06-04T01:00:44;100463.56;;;15.10;59.57
74893;BME280;63446;56.272;43.922;2023-06-04T01:03:14;100479.06;;;15.08;59.84
74893;BME280;63446;56.272;43.922;2023-06-04T01:05:53;100479.66;;;15.05;60.30
74893;BME280;63446;56.272;43.922;2023-06-04T01:08:23;100469.78;;;15.06;60.36
74893;BME280;63446;56.272;43.922;2023-06-04T01:10:53;100469.50;;;15.07;60.03
74893;BME280;63446;56.272;43.922;2023-06-04T01:13:19;100476.72;;;15.07;60.11
74893;BME280;63446;56.272;43.922;2023-06-04T01:15:45;100486.84;;;15.05;60.09
74893;BME280;63446;56.272;43.922;2023-06-04T01:18:19;100487.94;;;15.04;59.95
74893;BME280;63446;56.272;43.922;2023-06-04T01:21:09;100480.22;;;15.02;60.10
74893;BME280;63446;56.272;43.922;2023-06-04T01:23:49;100489.31;;;15.01;60.00
74893;BME280;63446;56.272;43.922;2023-06-04T01:26:26;100481.63;;;15.00;60.01
74893;BME280;63446;56.272;43.922;2023-06-04T01:28:54;100489.88;;;14.98;59.95
74893;BME280;63446;56.272;43.922;2023-06-04T01:31:21;100495.81;;;14.95;59.78
74893;BME280;63446;56.272;43.922;2023-06-04T01:33:54;100505.66;;;14.95;59.69
74893;BME280;63446;56.272;43.922;2023-06-04T01:36:20;100505.16;;;14.93;59.64
74893;BME280;63446;56.272;43.922;2023-06-04T01:38:46;100514.53;;;14.90;59.56
74893;BME280;63446;56.272;43.922;2023-06-04T01:41:13;100524.06;;;14.91;59.29
74893;BME280;63446;56.272;43.922;2023-06-04T01:43:39;100524.38;;;14.89;59.41
74893;BME280;63446;56.272;43.922;2023-06-04T01:46:05;100520.94;;;14.89;59.64
74893;BME280;63446;56.272;43.922;2023-06-04T01:48:32;100526.72;;;14.91;59.99
74893;BME280;63446;56.272;43.922;2023-06-04T01:50:59;100530.47;;;14.90;59.94
74893;BME280;63446;56.272;43.922;2023-06-04T01:53:25;100537.88;;;14.93;59.69
74893;BME280;63446;56.272;43.922;2023-06-04T01:55:52;100532.56;;;14.93;59.56
74893;BME280;63446;56.272;43.922;2023-06-04T01:58:18;100538.41;;;14.95;59.68
74893;BME280;63446;56.272;43.922;2023-06-04T02:00:49;100541.53;;;14.97;59.15
74893;BME280;63446;56.272;43.922;2023-06-04T02:03:16;100543.13;;;14.98;58.82
74893;BME280;63446;56.272;43.922;2023-06-04T02:05:42;100562.53;;;14.99;58.49
74893;BME280;63446;56.272;43.922;2023-06-04T02:08:11;100550.31;;;14.98;58.92
74893;BME280;63446;56.272;43.922;2023-06-04T02:10:37;100555.34;;;14.99;58.75
74893;BME280;63446;56.272;43.922;2023-06-04T02:13:03;100562.84;;;14.97;58.50
74893;BME280;63446;56.272;43.922;2023-06-04T02:15:31;100567.84;;;14.99;58.65
74893;BME280;63446;56.272;43.922;2023-06-04T02:18:00;100572.38;;;14.98;58.15
74893;BME280;63446;56.272;43.922;2023-06-04T02:20:59;100582.56;;;14.96;58.22
74893;BME280;63446;56.272;43.922;2023-06-04T02:23:26;100593.19;;;14.96;58.28
74893;BME280;63446;56.272;43.922;2023-06-04T02:25:53;100594.75;;;14.97;57.95
74893;BME280;63446;56.272;43.922;2023-06-04T02:28:20;100600.38;;;14.96;58.35
74893;BME280;63446;56.272;43.922;2023-06-04T02:30:46;100606.19;;;14.98;58.47
74893;BME280;63446;56.272;43.922;2023-06-04T02:33:13;100608.59;;;14.99;58.04
74893;BME280;63446;56.272;43.922;2023-06-04T02:35:40;100614.38;;;15.01;57.93
74893;BME280;63446;56.272;43.922;2023-06-04T02:38:07;100615.97;;;15.02;57.84
74893;BME280;63446;56.272;43.922;2023-06-04T02:40:32;100619.63;;;15.06;57.53
74893;BME280;63446;56.272;43.922;2023-06-04T02:42:59;100619.56;;;15.11;57.66
74893;BME280;63446;56.272;43.922;2023-06-04T02:45:25;100621.81;;;15.18;57.65
74893;BME280;63446;56.272;43.922;2023-06-04T02:47:51;100622.84;;;15.22;57.30
74893;BME280;63446;56.272;43.922;2023-06-04T02:50:18;100626.75;;;15.25;57.13
74893;BME280;63446;56.272;43.922;2023-06-04T02:52:44;100634.69;;;15.30;57.05
74893;BME280;63446;56.272;43.922;2023-06-04T02:55:11;100629.53;;;15.33;57.40
74893;BME280;63446;56.272;43.922;2023-06-04T02:57:42;100637.44;;;15.38;56.80
74893;BME280;63446;56.272;43.922;2023-06-04T03:00:10;100641.31;;;15.46;56.47
74893;BME280;63446;56.272;43.922;2023-06-04T03:02:47;100637.75;;;15.51;56.08
74893;BME280;63446;56.272;43.922;2023-06-04T03:05:16;100634.22;;;15.55;56.12
74893;BME280;63446;56.272;43.922;2023-06-04T03:07:45;100651.69;;;15.61;55.84
74893;BME280;63446;56.272;43.922;2023-06-04T03:10:13;100652.94;;;15.64;55.86
74893;BME280;63446;56.272;43.922;2023-06-04T03:12:40;100663.56;;;15.69;55.93
74893;BME280;63446;56.272;43.922;2023-06-04T03:15:06;100672.06;;;15.85;55.50
74893;BME280;63446;56.272;43.922;2023-06-04T03:17:34;100671.06;;;16.08;54.78
74893;BME280;63446;56.272;43.922;2023-06-04T03:20:00;100668.34;;;16.36;54.13
74893;BME280;63446;56.272;43.922;2023-06-04T03:22:27;100680.84;;;16.77;53.34
74893;BME280;63446;56.272;43.922;2023-06-04T03:24:54;100686.53;;;17.06;52.37
74893;BME280;63446;56.272;43.922;2023-06-04T03:27:20;100685.09;;;17.23;51.92
74893;BME280;63446;56.272;43.922;2023-06-04T03:29:47;100691.94;;;17.38;51.75
74893;BME280;63446;56.272;43.922;2023-06-04T03:32:14;100691.81;;;17.51;51.50
74893;BME280;63446;56.272;43.922;2023-06-04T03:34:42;100692.53;;;17.66;51.08
74893;BME280;63446;56.272;43.922;2023-06-04T03:37:08;100697.97;;;17.83;50.62
74893;BME280;63446;56.272;43.922;2023-06-04T03:39:35;100703.06;;;18.02;49.76
74893;BME280;63446;56.272;43.922;2023-06-04T03:42:04;100699.50;;;18.15;49.74
74893;BME280;63446;56.272;43.922;2023-06-04T03:44:31;100711.66;;;18.39;49.18
74893;BME280;63446;56.272;43.922;2023-06-04T03:46:57;100717.53;;;18.67;48.50
74893;BME280;63446;56.272;43.922;2023-06-04T03:49:24;100717.25;;;19.12;47.37
74893;BME280;63446;56.272;43.922;2023-06-04T03:51:50;100719.88;;;20.23;45.81
74893;BME280;63446;56.272;43.922;2023-06-04T03:54:19;100717.31;;;21.89;43.41
74893;BME280;63446;56.272;43.922;2023-06-04T03:56:47;100727.19;;;24.25;39.30
74893;BME280;63446;56.272;43.922;2023-06-04T03:59:14;100731.03;;;26.96;35.21
74893;BME280;63446;56.272;43.922;2023-06-04T04:01:41;100729.81;;;30.25;31.10
74893;BME280;63446;56.272;43.922;2023-06-04T04:04:08;100730.97;;;33.59;27.20
74893;BME280;63446;56.272;43.922;2023-06-04T04:06:34;100741.81;;;36.58;24.25
74893;BME280;63446;56.272;43.922;2023-06-04T04:09:02;100740.03;;;39.44;21.77
74893;BME280;63446;56.272;43.922;2023-06-04T04:11:29;100748.81;;;41.97;19.35
74893;BME280;63446;56.272;43.922;2023-06-04T04:13:56;100738.97;;;43.25;18.14
74893;BME280;63446;56.272;43.922;2023-06-04T04:16:22;100742.00;;;44.83;16.43
74893;BME280;63446;56.272;43.922;2023-06-04T04:18:50;100746.72;;;44.34;16.46
74893;BME280;63446;56.272;43.922;2023-06-04T04:21:16;100746.81;;;43.27;17.13
74893;BME280;63446;56.272;43.922;2023-06-04T04:23:45;100747.78;;;42.09;17.65
74893;BME280;63446;56.272;43.922;2023-06-04T04:26:11;100750.84;;;41.09;17.76
74893;BME280;63446;56.272;43.922;2023-06-04T04:28:44;100759.44;;;41.11;18.09
74893;BME280;63446;56.272;43.922;2023-06-04T04:31:11;100763.50;;;42.56;16.75
74893;BME280;63446;56.272;43.922;2023-06-04T04:33:37;100758.91;;;44.37;15.97
74893;BME280;63446;56.272;43.922;2023-06-04T04:36:08;100762.78;;;46.24;14.62
74893;BME280;63446;56.272;43.922;2023-06-04T04:38:38;100761.44;;;47.92;13.84
74893;BME280;63446;56.272;43.922;2023-06-04T04:41:04;100768.72;;;49.35;12.72
74893;BME280;63446;56.272;43.922;2023-06-04T04:43:32;100771.75;;;50.52;11.73
74893;BME280;63446;56.272;43.922;2023-06-04T04:46:03;100764.22;;;51.48;11.29
74893;BME280;63446;56.272;43.922;2023-06-04T04:48:29;100774.19;;;52.25;10.71
74893;BME280;63446;56.272;43.922;2023-06-04T04:50:55;100767.66;;;52.95;10.57
74893;BME280;63446;56.272;43.922;2023-06-04T04:53:21;100769.22;;;53.63;10.34
74893;BME280;63446;56.272;43.922;2023-06-04T04:55:47;100773.19;;;54.21;9.79
74893;BME280;63446;56.272;43.922;2023-06-04T04:58:14;100761.25;;;54.69;9.84
74893;BME280;63446;56.272;43.922;2023-06-04T05:00:41;100767.13;;;55.11;9.84
74893;BME280;63446;56.272;43.922;2023-06-04T05:03:07;100765.19;;;55.54;9.51
74893;BME280;63446;56.272;43.922;2023-06-04T05:05:34;100758.28;;;55.97;9.07
74893;BME280;63446;56.272;43.922;2023-06-04T05:08:03;100759.97;;;56.35;8.85
74893;BME280;63446;56.272;43.922;2023-06-04T05:10:33;100754.81;;;56.59;8.71
74893;BME280;63446;56.272;43.922;2023-06-04T05:13:02;100748.81;;;56.55;8.42
74893;BME280;63446;56.272;43.922;2023-06-04T05:15:36;100750.91;;;56.37;8.46
74893;BME280;63446;56.272;43.922;2023-06-04T05:18:03;100748.56;;;56.60;8.72
74893;BME280;63446;56.272;43.922;2023-06-04T05:20:33;100740.72;;;56.86;8.49
74893;BME280;63446;56.272;43.922;2023-06-04T05:23:01;100740.75;;;56.95;8.47
74893;BME280;63446;56.272;43.922;2023-06-04T05:25:28;100743.56;;;57.13;8.20
74893;BME280;63446;56.272;43.922;2023-06-04T05:27:56;100744.41;;;57.33;7.98
74893;BME280;63446;56.272;43.922;2023-06-04T05:30:22;100744.75;;;57.37;7.82
74893;BME280;63446;56.272;43.922;2023-06-04T05:32:48;100742.53;;;57.45;7.97
74893;BME280;63446;56.272;43.922;2023-06-04T05:35:16;100740.63;;;57.57;7.93
74893;BME280;63446;56.272;43.922;2023-06-04T05:37:43;100752.38;;;57.71;7.91
74893;BME280;63446;56.272;43.922;2023-06-04T05:40:11;100751.34;;;57.86;7.67
74893;BME280;63446;56.272;43.922;2023-06-04T05:42:38;100761.44;;;57.60;7.66
74893;BME280;63446;56.272;43.922;2023-06-04T05:45:05;100769.34;;;57.61;7.82
74893;BME280;63446;56.272;43.922;2023-06-04T05:47:35;100773.03;;;57.17;7.74
74893;BME280;63446;56.272;43.922;2023-06-04T05:50:00;100762.19;;;56.44;8.15
74893;BME280;63446;56.272;43.922;2023-06-04T05:52:29;100763.97;;;56.15;7.87
74893;BME280;63446;56.272;43.922;2023-06-04T05:54:55;100760.97;;;55.63;7.89
74893;BME280;63446;56.272;43.922;2023-06-04T05:57:21;100763.66;;;54.80;8.32
74893;BME280;63446;56.272;43.922;2023-06-04T05:59:48;100768.69;;;54.26;8.78
74893;BME280;63446;56.272;43.922;2023-06-04T06:02:16;100778.75;;;52.36;9.22
74893;BME280;63446;56.272;43.922;2023-06-04T06:04:42;100774.00;;;49.95;10.53
74893;BME280;63446;56.272;43.922;2023-06-04T06:07:08;100779.41;;;48.14;11.28
74893;BME280;63446;56.272;43.922;2023-06-04T06:09:34;100779.53;;;46.58;12.40
74893;BME280;63446;56.272;43.922;2023-06-04T06:12:02;100793.22;;;46.17;11.71
74893;BME280;63446;56.272;43.922;2023-06-04T06:14:29;100787.97;;;44.99;12.61
74893;BME280;63446;56.272;43.922;2023-06-04T06:16:56;100782.91;;;43.62;13.57
74893;BME280;63446;56.272;43.922;2023-06-04T06:19:21;100790.78;;;42.28;13.90
74893;BME280;63446;56.272;43.922;2023-06-04T06:21:48;100783.59;;;40.78;14.51
74893;BME280;63446;56.272;43.922;2023-06-04T06:24:14;100787.03;;;39.35;15.27
74893;BME280;63446;56.272;43.922;2023-06-04T06:26:40;100790.75;;;38.03;16.25
74893;BME280;63446;56.272;43.922;2023-06-04T06:29:09;100791.53;;;36.80;17.19
74893;BME280;63446;56.272;43.922;2023-06-04T06:31:35;100791.84;;;35.65;17.80
74893;BME280;63446;56.272;43.922;2023-06-04T06:34:00;100786.56;;;34.46;19.04
74893;BME280;63446;56.272;43.922;2023-06-04T06:36:26;100795.47;;;33.63;20.08
74893;BME280;63446;56.272;43.922;2023-06-04T06:38:54;100792.34;;;32.80;20.50
74893;BME280;63446;56.272;43.922;2023-06-04T06:41:20;100789.53;;;32.12;21.14
74893;BME280;63446;56.272;43.922;2023-06-04T06:43:46;100797.09;;;31.48;21.57
74893;BME280;63446;56.272;43.922;2023-06-04T06:46:12;100796.22;;;30.92;21.82
74893;BME280;63446;56.272;43.922;2023-06-04T06:48:39;100795.63;;;30.31;22.33
74893;BME280;63446;56.272;43.922;2023-06-04T06:51:06;100799.53;;;29.73;22.58
74893;BME280;63446;56.272;43.922;2023-06-04T06:53:32;100799.81;;;29.25;22.82
74893;BME280;63446;56.272;43.922;2023-06-04T06:55:58;100805.50;;;28.84;22.71
74893;BME280;63446;56.272;43.922;2023-06-04T06:58:25;100809.19;;;28.47;23.57
74893;BME280;63446;56.272;43.922;2023-06-04T07:00:51;100796.53;;;28.14;23.99
74893;BME280;63446;56.272;43.922;2023-06-04T07:03:17;100807.16;;;27.85;23.69
74893;BME280;63446;56.272;43.922;2023-06-04T07:05:43;100802.97;;;27.54;23.86
74893;BME280;63446;56.272;43.922;2023-06-04T07:08:08;100805.84;;;27.31;24.03
74893;BME280;63446;56.272;43.922;2023-06-04T07:10:35;100798.31;;;27.17;25.32
74893;BME280;63446;56.272;43.922;2023-06-04T07:13:31;100809.81;;;27.07;24.74
74893;BME280;63446;56.272;43.922;2023-06-04T07:16:01;100811.75;;;27.07;24.48
74893;BME280;63446;56.272;43.922;2023-06-04T07:18:27;100817.13;;;27.03;24.43
74893;BME280;63446;56.272;43.922;2023-06-04T07:20:53;100821.72;;;26.99;24.69
74893;BME280;63446;56.272;43.922;2023-06-04T07:23:19;100823.16;;;26.89;24.11
74893;BME280;63446;56.272;43.922;2023-06-04T07:25:49;100821.44;;;26.77;24.66
74893;BME280;63446;56.272;43.922;2023-06-04T07:28:16;100832.16;;;26.67;25.25
74893;BME280;63446;56.272;43.922;2023-06-04T07:30:42;100842.06;;;26.56;25.12
74893;BME280;63446;56.272;43.922;2023-06-04T07:33:11;100843.78;;;26.41;24.81
74893;BME280;63446;56.272;43.922;2023-06-04T07:35:37;100851.66;;;26.26;25.24
74893;BME280;63446;56.272;43.922;2023-06-04T07:38:04;100844.41;;;26.08;25.25
74893;BME280;63446;56.272;43.922;2023-06-04T07:40:29;100857.56;;;25.86;25.57
74893;BME280;63446;56.272;43.922;2023-06-04T07:42:56;100853.06;;;25.74;25.76
74893;BME280;63446;56.272;43.922;2023-06-04T07:45:22;100863.50;;;25.72;25.94
74893;BME280;63446;56.272;43.922;2023-06-04T07:47:48;100862.72;;;25.72;26.44
74893;BME280;63446;56.272;43.922;2023-06-04T07:50:14;100869.25;;;25.71;26.55
74893;BME280;63446;56.272;43.922;2023-06-04T07:52:43;100869.56;;;25.66;26.53
74893;BME280;63446;56.272;43.922;2023-06-04T07:55:09;100864.22;;;25.50;26.13
74893;BME280;63446;56.272;43.922;2023-06-04T07:57:36;100869.28;;;25.32;26.53
74893;BME280;63446;56.272;43.922;2023-06-04T08:00:03;100869.66;;;25.11;27.15
74893;BME280;63446;56.272;43.922;2023-06-04T08:02:38;100882.31;;;24.91;26.95
74893;BME280;63446;56.272;43.922;2023-06-04T08:05:06;100882.28;;;24.72;27.28
74893;BME280;63446;56.272;43.922;2023-06-04T08:07:32;100884.19;;;24.55;26.77
74893;BME280;63446;56.272;43.922;2023-06-04T08:09:59;100879.28;;;24.42;27.09
74893;BME280;63446;56.272;43.922;2023-06-04T08:12:28;100874.81;;;24.33;27.45
74893;BME280;63446;56.272;43.922;2023-06-04T08:14:53;100883.16;;;24.28;26.97
74893;BME280;63446;56.272;43.922;2023-06-04T08:17:25;100879.06;;;24.19;27.62
74893;BME280;63446;56.272;43.922;2023-06-04T08:20:11;100884.28;;;24.11;27.49
74893;BME280;63446;56.272;43.922;2023-06-04T08:22:55;100885.66;;;24.05;27.58
74893;BME280;63446;56.272;43.922;2023-06-04T08:25:41;100886.97;;;23.96;27.27
74893;BME280;63446;56.272;43.922;2023-06-04T08:28:26;100888.69;;;23.88;27.73
74893;BME280;63446;56.272;43.922;2023-06-04T08:31:06;100888.06;;;23.79;28.07
74893;BME280;63446;56.272;43.922;2023-06-04T08:33:41;100888.22;;;23.70;27.85
74893;BME280;63446;56.272;43.922;2023-06-04T08:36:14;100885.53;;;23.58;28.47
74893;BME280;63446;56.272;43.922;2023-06-04T08:38:40;100885.34;;;23.51;28.53
74893;BME280;63446;56.272;43.922;2023-06-04T08:43:48;100885.19;;;23.31;27.81
74893;BME280;63446;56.272;43.922;2023-06-04T08:46:17;100887.56;;;23.21;28.77
74893;BME280;63446;56.272;43.922;2023-06-04T08:48:44;100889.72;;;23.15;29.14
74893;BME280;63446;56.272;43.922;2023-06-04T08:51:10;100885.69;;;23.09;28.83
74893;BME280;63446;56.272;43.922;2023-06-04T08:53:37;100886.72;;;23.04;28.71
74893;BME280;63446;56.272;43.922;2023-06-04T08:56:03;100881.47;;;22.96;28.42
74893;BME280;63446;56.272;43.922;2023-06-04T08:58:33;100889.66;;;22.87;28.29
74893;BME280;63446;56.272;43.922;2023-06-04T09:01:00;100891.66;;;22.78;27.67
74893;BME280;63446;56.272;43.922;2023-06-04T09:03:30;100893.22;;;22.66;27.77
74893;BME280;63446;56.272;43.922;2023-06-04T09:06:01;100889.53;;;22.59;28.82
74893;BME280;63446;56.272;43.922;2023-06-04T09:08:31;100893.69;;;22.56;28.60
74893;BME280;63446;56.272;43.922;2023-06-04T09:10:57;100894.00;;;22.55;29.07
74893;BME280;63446;56.272;43.922;2023-06-04T09:13:28;100895.03;;;22.62;30.02
74893;BME280;63446;56.272;43.922;2023-06-04T09:16:00;100908.16;;;22.76;29.66
74893;BME280;63446;56.272;43.922;2023-06-04T09:18:27;100902.13;;;22.79;29.25
74893;BME280;63446;56.272;43.922;2023-06-04T09:21:06;100901.41;;;22.82;28.59
74893;BME280;63446;56.272;43.922;2023-06-04T09:23:44;100915.59;;;22.79;28.32
74893;BME280;63446;56.272;43.922;2023-06-04T09:26:11;100906.56;;;22.75;28.70
74893;BME280;63446;56.272;43.922;2023-06-04T09:28:44;100893.22;;;22.66;28.72
74893;BME280;63446;56.272;43.922;2023-06-04T09:31:15;100901.19;;;22.51;28.50
74893;BME280;63446;56.272;43.922;2023-06-04T09:33:45;100902.66;;;22.48;28.54
74893;BME280;63446;56.272;43.922;2023-06-04T09:36:11;100901.97;;;22.51;28.83
74893;BME280;63446;56.272;43.922;2023-06-04T09:38:38;100900.84;;;22.52;28.36
74893;BME280;63446;56.272;43.922;2023-06-04T09:41:15;100901.88;;;22.48;29.28
74893;BME280;63446;56.272;43.922;2023-06-04T09:43:42;100901.78;;;22.56;28.99
74893;BME280;63446;56.272;43.922;2023-06-04T09:46:14;100907.16;;;22.69;28.78
74893;BME280;63446;56.272;43.922;2023-06-04T09:48:41;100917.59;;;22.70;28.33
74893;BME280;63446;56.272;43.922;2023-06-04T09:51:14;100916.81;;;22.70;27.98
74893;BME280;63446;56.272;43.922;2023-06-04T09:53:41;100916.03;;;22.69;27.73
74893;BME280;63446;56.272;43.922;2023-06-04T09:56:07;100923.31;;;22.69;28.17
74893;BME280;63446;56.272;43.922;2023-06-04T09:58:35;100914.47;;;22.68;28.31
74893;BME280;63446;56.272;43.922;2023-06-04T10:01:04;100918.50;;;22.74;28.49
74893;BME280;63446;56.272;43.922;2023-06-04T10:03:35;100920.16;;;22.79;28.37
74893;BME280;63446;56.272;43.922;2023-06-04T10:06:03;100915.91;;;22.78;28.52
74893;BME280;63446;56.272;43.922;2023-06-04T10:08:31;100915.91;;;22.78;28.52
74893;BME280;63446;56.272;43.922;2023-06-04T10:11:01;100916.25;;;22.76;27.11
74893;BME280;63446;56.272;43.922;2023-06-04T10:13:30;100927.59;;;22.70;27.13
74893;BME280;63446;56.272;43.922;2023-06-04T10:16:00;100923.75;;;22.71;27.05
74893;BME280;63446;56.272;43.922;2023-06-04T10:18:27;100922.06;;;22.78;27.80
74893;BME280;63446;56.272;43.922;2023-06-04T10:20:57;100920.50;;;23.02;27.49
74893;BME280;63446;56.272;43.922;2023-06-04T10:23:24;100928.69;;;23.30;27.07
74893;BME280;63446;56.272;43.922;2023-06-04T10:25:50;100924.34;;;23.53;27.62
74893;BME280;63446;56.272;43.922;2023-06-04T10:28:18;100933.41;;;23.73;27.69
74893;BME280;63446;56.272;43.922;2023-06-04T10:30:47;100937.44;;;23.79;27.32
74893;BME280;63446;56.272;43.922;2023-06-04T10:33:14;100940.13;;;23.79;27.21
74893;BME280;63446;56.272;43.922;2023-06-04T10:35:43;100946.53;;;23.75;26.89
74893;BME280;63446;56.272;43.922;2023-06-04T10:38:10;100943.41;;;23.73;27.09
74893;BME280;63446;56.272;43.922;2023-06-04T10:40:38;100941.94;;;23.63;27.11
74893;BME280;63446;56.272;43.922;2023-06-04T10:43:08;100932.19;;;23.58;26.91
74893;BME280;63446;56.272;43.922;2023-06-04T10:45:35;100931.19;;;23.51;27.16
74893;BME280;63446;56.272;43.922;2023-06-04T10:48:03;100934.81;;;23.43;27.01
74893;BME280;63446;56.272;43.922;2023-06-04T10:50:32;100929.69;;;23.37;27.28
74893;BME280;63446;56.272;43.922;2023-06-04T10:53:01;100929.94;;;23.20;26.72
74893;BME280;63446;56.272;43.922;2023-06-04T10:55:31;100937.94;;;23.04;26.91
74893;BME280;63446;56.272;43.922;2023-06-04T10:57:59;100937.16;;;22.92;27.58
74893;BME280;63446;56.272;43.922;2023-06-04T11:00:39;100931.63;;;22.88;27.25
74893;BME280;63446;56.272;43.922;2023-06-04T11:03:10;100930.28;;;22.94;27.09
74893;BME280;63446;56.272;43.922;2023-06-04T11:05:44;100930.50;;;23.01;27.91
74893;BME280;63446;56.272;43.922;2023-06-04T11:08:14;100943.66;;;23.15;27.79
74893;BME280;63446;56.272;43.922;2023-06-04T11:10:42;100947.66;;;23.33;27.48
74893;BME280;63446;56.272;43.922;2023-06-04T11:13:09;100942.66;;;23.48;27.45
74893;BME280;63446;56.272;43.922;2023-06-04T11:15:38;100948.47;;;23.62;26.37
74893;BME280;63446;56.272;43.922;2023-06-04T11:18:05;100947.31;;;23.75;26.52
74893;BME280;63446;56.272;43.922;2023-06-04T11:20:31;100954.50;;;23.83;26.41
74893;BME280;63446;56.272;43.922;2023-06-04T11:22:58;100959.91;;;23.83;27.00
74893;BME280;63446;56.272;43.922;2023-06-04T11:25:30;100967.34;;;23.74;27.14
74893;BME280;63446;56.272;43.922;2023-06-04T11:27:59;100955.25;;;23.68;26.96
74893;BME280;63446;56.272;43.922;2023-06-04T11:30:28;100959.16;;;23.58;26.53
74893;BME280;63446;56.272;43.922;2023-06-04T11:33:04;100955.28;;;23.44;27.23
74893;BME280;63446;56.272;43.922;2023-06-04T11:35:39;100954.88;;;23.29;27.72
74893;BME280;63446;56.272;43.922;2023-06-04T11:38:07;100961.84;;;23.18;27.24
74893;BME280;63446;56.272;43.922;2023-06-04T11:40:34;100949.38;;;23.13;26.82
74893;BME280;63446;56.272;43.922;2023-06-04T11:43:01;100957.34;;;23.10;26.86
74893;BME280;63446;56.272;43.922;2023-06-04T11:45:28;100949.72;;;23.12;26.96
74893;BME280;63446;56.272;43.922;2023-06-04T11:47:56;100941.06;;;23.19;26.95
74893;BME280;63446;56.272;43.922;2023-06-04T11:50:27;100961.47;;;23.32;27.22
74893;BME280;63446;56.272;43.922;2023-06-04T11:52:53;100961.34;;;23.40;27.41
74893;BME280;63446;56.272;43.922;2023-06-04T11:55:20;100963.34;;;23.44;26.77
74893;BME280;63446;56.272;43.922;2023-06-04T11:57:50;100964.13;;;23.56;26.33
74893;BME280;63446;56.272;43.922;2023-06-04T12:00:17;100962.31;;;23.60;26.59
74893;BME280;63446;56.272;43.922;2023-06-04T12:02:54;100962.13;;;23.53;26.70
74893;BME280;63446;56.272;43.922;2023-06-04T12:05:23;100963.03;;;23.45;26.55
74893;BME280;63446;56.272;43.922;2023-06-04T12:08:09;100977.63;;;23.44;26.83
74893;BME280;63446;56.272;43.922;2023-06-04T12:10:38;100968.44;;;23.45;26.60
74893;BME280;63446;56.272;43.922;2023-06-04T12:13:04;100971.13;;;23.45;26.34
74893;BME280;63446;56.272;43.922;2023-06-04T12:15:30;100978.44;;;23.45;26.38
74893;BME280;63446;56.272;43.922;2023-06-04T12:17:56;100965.84;;;23.36;26.57
74893;BME280;63446;56.272;43.922;2023-06-04T12:20:40;100973.75;;;23.29;26.90
74893;BME280;63446;56.272;43.922;2023-06-04T12:23:07;100976.22;;;23.22;27.09
74893;BME280;63446;56.272;43.922;2023-06-04T12:25:35;100970.16;;;23.13;27.52
74893;BME280;63446;56.272;43.922;2023-06-04T12:28:03;100975.56;;;23.01;27.50
74893;BME280;63446;56.272;43.922;2023-06-04T12:30:39;100977.09;;;22.89;27.88
74893;BME280;63446;56.272;43.922;2023-06-04T12:33:07;100983.38;;;22.81;27.52
74893;BME280;63446;56.272;43.922;2023-06-04T12:35:38;100972.94;;;22.80;28.17
74893;BME280;63446;56.272;43.922;2023-06-04T12:38:04;100981.34;;;22.78;27.76
74893;BME280;63446;56.272;43.922;2023-06-04T12:40:31;100983.63;;;22.76;27.72
74893;BME280;63446;56.272;43.922;2023-06-04T12:42:57;100980.47;;;22.74;28.56
74893;BME280;63446;56.272;43.922;2023-06-04T12:45:22;100981.00;;;22.67;27.99
74893;BME280;63446;56.272;43.922;2023-06-04T12:47:48;100979.06;;;22.56;28.72
74893;BME280;63446;56.272;43.922;2023-06-04T12:50:14;100981.44;;;22.45;28.84